Time;durP1;ratioP1;P1;durP2;ratioP2;P2;SDS_P1;SDS_P2;PMS_P1;PMS_P2;Temp;Humidity;BMP_temperature;BMP_pressure;BME280_temperature;BME280_humidity;BME280_pressure;Samples;Min_cycle;Max_cycle;Signal;HPM_P1;HPM_P2
2022/11/26 00:02:32;;;;;;;48.00;17.02;;;;;;;5.34;66.84;100523.75;7717952;32;37979;-86
2022/11/26 00:06:49;;;;;;;48.22;18.52;;;;;;;5.15;67.80;100522.84;7718936;32;38025;-87
2022/11/26 00:11:12;;;;;;;73.55;18.75;;;;;;;5.19;67.91;100536.75;7711224;32;40090;-86
2022/11/26 00:15:30;;;;;;;59.88;18.20;;;;;;;5.80;66.09;100532.56;7719891;32;40883;-86
2022/11/26 00:19:50;;;;;;;72.78;19.33;;;;;;;5.18;67.76;100535.94;7739205;32;37405;-86
2022/11/26 00:24:21;;;;;;;73.22;20.50;;;;;;;5.36;67.83;100531.66;7739023;32;37195;-86
2022/11/26 00:28:39;;;;;;;56.83;18.37;;;;;;;4.75;69.66;100531.19;7720474;32;39125;-87
2022/11/26 00:32:56;;;;;;;77.15;18.60;;;;;;;5.15;68.13;100536.34;7712149;32;40544;-87
2022/11/26 00:37:21;;;;;;;46.92;18.15;;;;;;;5.59;66.79;100541.91;7712220;32;37936;-86
2022/11/26 00:41:38;;;;;;;104.30;19.52;;;;;;;5.36;67.74;100539.75;7734209;32;37780;-86
2022/11/26 00:45:55;;;;;;;43.53;18.25;;;;;;;5.53;67.31;100540.88;7738550;32;39402;-87
2022/11/26 00:50:20;;;;;;;77.00;17.73;;;;;;;5.22;68.16;100547.94;7747417;32;41292;-87
2022/11/26 00:54:36;;;;;;;117.72;19.92;;;;;;;5.14;68.56;100550.09;7764830;32;38764;-86
2022/11/26 00:58:53;;;;;;;194.85;21.40;;;;;;;4.94;69.13;100555.63;7737674;32;36567;-86
2022/11/26 01:03:10;;;;;;;66.12;17.65;;;;;;;4.49;70.28;100565.34;7738508;32;39848;-87
2022/11/26 01:07:26;;;;;;;57.85;18.05;;;;;;;5.25;67.82;100561.03;7738798;32;38736;-86
2022/11/26 01:11:42;;;;;;;111.07;20.30;;;;;;;5.32;67.58;100560.19;7738170;32;37931;-87
2022/11/26 01:16:01;;;;;;;98.97;19.30;;;;;;;5.15;68.08;100557.16;7738229;32;37311;-87
2022/11/26 01:20:25;;;;;;;63.53;18.12;;;;;;;5.27;67.81;100555.41;7737358;32;39012;-86
2022/11/26 01:24:41;;;;;;;;;;;;;;;5.38;67.33;100553.88;7738733;32;39904;-86
2022/11/26 01:28:57;;;;;;;37.20;16.15;;;;;;;5.44;67.03;100553.84;7738542;32;38962;-86
2022/11/26 01:33:13;;;;;;;40.10;16.05;;;;;;;5.42;67.19;100557.81;7737958;32;36859;-86
2022/11/26 01:37:30;;;;;;;48.92;14.87;;;;;;;5.09;68.50;100569.69;7738169;32;39510;-86
2022/11/26 01:42:05;;;;;;;110.60;19.15;;;;;;;5.55;66.82;100562.31;7763064;32;39923;-86
2022/11/26 01:46:21;;;;;;;85.55;15.10;;;;;;;5.55;66.66;100567.72;7764997;32;38924;-86
2022/11/26 01:50:53;;;;;;;36.63;13.45;;;;;;;5.34;66.63;100566.19;7765057;32;36898;-87
2022/11/26 01:55:14;;;;;;;59.35;13.85;;;;;;;5.00;67.05;100570.97;7764891;32;38968;-86
2022/11/26 01:59:36;;;;;;;31.17;13.57;;;;;;;5.06;67.19;100576.34;7751705;32;38776;-86
2022/11/26 02:04:22;;;;;;;41.37;13.40;;;;;;;5.23;66.79;100576.66;7751534;32;38201;-86
2022/11/26 02:08:38;;;;;;;30.80;13.23;;;;;;;5.34;66.01;100572.44;7751373;32;37343;-87
2022/11/26 02:12:54;;;;;;;60.63;14.15;;;;;;;5.26;66.17;100581.62;7750971;32;39980;-87
2022/11/26 02:17:29;;;;;;;52.30;15.77;;;;;;;5.36;66.00;100583.84;7763917;32;40769;-87
2022/11/26 02:21:52;;;;;;;34.03;14.00;;;;;;;4.88;68.19;100585.16;7764291;32;39077;-86
2022/11/26 02:26:45;;;;;;;44.40;15.05;;;;;;;5.30;66.41;100582.03;7764569;32;37375;-85
2022/11/26 02:31:32;;;;;;;63.00;14.40;;;;;;;4.81;68.35;100589.78;7764293;32;39975;-87
2022/11/26 02:36:04;;;;;;;30.88;13.18;;;;;;;4.73;68.62;100583.78;7986358;26;40020;-86
2022/11/26 02:40:21;;;;;;;32.25;12.82;;;;;;;4.77;68.25;100582.31;7751015;32;38944;-84
2022/11/26 02:44:42;;;;;;;56.10;13.32;;;;;;;5.18;66.97;100587.28;7763040;32;36842;-87
2022/11/26 02:49:01;;;;;;;48.00;13.43;;;;;;;4.97;66.83;100585.75;7750755;32;39962;-87
2022/11/26 02:53:19;;;;;;;41.45;12.93;;;;;;;5.37;65.08;100584.69;7763763;32;39987;-87
2022/11/26 02:57:43;;;;;;;34.13;12.07;;;;;;;4.89;66.45;100588.69;7750383;32;38156;-87
2022/11/26 03:02:26;;;;;;;39.00;11.95;;;;;;;5.12;65.84;100600.84;7750689;32;37220;-86
2022/11/26 03:06:43;;;;;;;27.60;11.00;;;;;;;4.61;66.99;100607.91;7746487;32;39184;-87
2022/11/26 03:10:59;;;;;;;27.08;11.45;;;;;;;4.95;66.00;100611.31;7749314;32;40830;-88
2022/11/26 03:15:16;;;;;;;27.83;11.82;;;;;;;4.95;66.12;100600.50;7763159;32;38576;-87
2022/11/26 03:19:32;;;;;;;28.27;11.70;;;;;;;4.89;65.70;100608.41;7764141;32;37623;-87
2022/11/26 03:23:48;;;;;;;33.63;12.52;;;;;;;4.61;66.90;100618.72;7766599;32;39935;-86
2022/11/26 03:28:05;;;;;;;51.45;12.93;;;;;;;4.32;68.00;100620.84;7766703;32;40141;-87
2022/11/26 03:32:22;;;;;;;34.05;12.77;;;;;;;4.83;66.63;100620.09;7752881;32;38478;-87
2022/11/26 03:36:38;;;;;;;29.80;12.40;;;;;;;4.59;67.42;100628.88;7766504;32;37864;-86
2022/11/26 03:40:56;;;;;;;33.65;12.68;;;;;;;4.88;66.60;100644.59;7766097;32;40086;-87
2022/11/26 03:45:13;;;;;;;26.58;11.50;;;;;;;5.17;65.81;100634.28;7765920;32;39877;-87
2022/11/26 03:49:29;;;;;;;24.90;11.20;;;;;;;4.50;68.11;100637.25;7766509;32;38758;-87
2022/11/26 03:53:45;;;;;;;31.40;13.50;;;;;;;5.27;65.86;100631.13;7766363;32;37281;-87
2022/11/26 03:58:02;;;;;;;29.40;12.05;;;;;;;5.17;66.14;100631.56;7766435;32;39933;-87
2022/11/26 04:02:19;;;;;;;28.75;11.05;;;;;;;4.88;67.14;100638.34;7766245;32;39974;-87
2022/11/26 04:06:35;;;;;;;24.90;11.32;;;;;;;5.09;66.16;100642.66;7766069;32;38772;-87
2022/11/26 04:10:51;;;;;;;35.60;12.55;;;;;;;4.87;66.83;100650.22;7766513;32;37126;-87
2022/11/26 04:15:09;;;;;;;227.73;18.87;;;;;;;5.03;66.51;100647.03;7766225;32;39303;-87
2022/11/26 04:19:25;;;;;;;45.33;12.40;;;;;;;4.70;67.84;100644.44;7766051;32;39899;-87
2022/11/26 04:23:41;;;;;;;62.47;13.10;;;;;;;5.13;66.15;100646.59;7765949;32;37920;-87
2022/11/26 04:27:58;;;;;;;37.45;11.52;;;;;;;4.50;68.10;100664.25;7765853;32;37142;-88
2022/11/26 04:32:14;;;;;;;44.92;11.50;;;;;;;4.78;67.26;100665.84;7765770;32;40045;-87
2022/11/26 04:36:30;;;;;;;55.20;11.55;;;;;;;4.77;67.02;100666.88;7765588;32;40783;-88
2022/11/26 04:40:47;;;;;;;43.38;12.98;;;;;;;4.56;67.39;100665.25;7765850;32;38011;-87
2022/11/26 04:45:04;;;;;;;25.20;11.45;;;;;;;4.93;66.33;100683.66;7752008;32;38320;-86
2022/11/26 04:49:21;;;;;;;33.53;10.48;;;;;;;4.98;66.31;100684.69;7765621;32;40114;-87
2022/11/26 04:53:37;;;;;;;40.05;11.00;;;;;;;4.70;67.32;100690.38;7765700;32;40839;-88
2022/11/26 04:57:54;;;;;;;37.40;10.23;;;;;;;4.66;66.89;100695.38;7765456;32;38818;-87
2022/11/26 05:02:10;;;;;;;32.53;11.10;;;;;;;4.92;66.26;100695.53;7765720;32;38067;-87
2022/11/26 05:06:26;;;;;;;27.62;12.48;;;;;;;4.68;66.81;100703.25;7765592;32;40223;-87
2022/11/26 05:10:43;;;;;;;25.48;12.88;;;;;;;5.00;65.67;100692.56;7765521;32;38979;-87
2022/11/26 05:14:59;;;;;;;22.02;10.93;;;;;;;4.61;67.06;100711.37;7764801;32;38771;-88
2022/11/26 05:19:15;;;;;;;77.97;12.27;;;;;;;5.03;65.92;100711.91;7765223;32;36803;-87
2022/11/26 05:23:32;;;;;;;49.28;12.35;;;;;;;4.61;66.89;100715.97;7765367;32;39994;-86
2022/11/26 05:27:48;;;;;;;72.10;11.10;;;;;;;4.65;66.93;100719.88;7765274;32;40113;-87
2022/11/26 05:32:04;;;;;;;67.28;11.63;;;;;;;4.85;66.61;100720.69;7765298;32;37937;-87
2022/11/26 05:36:21;;;;;;;36.88;10.45;;;;;;;4.94;65.99;100728.56;7764824;32;37067;-87
2022/11/26 05:40:37;;;;;;;83.22;11.70;;;;;;;5.17;65.00;100719.97;7765070;32;39311;-87
2022/11/26 05:44:53;;;;;;;44.55;12.50;;;;;;;4.94;65.09;100734.78;7764134;32;39882;-87
2022/11/26 05:49:10;;;;;;;107.70;14.75;;;;;;;4.80;65.13;100731.28;7751277;32;37697;-86
2022/11/26 05:53:27;;;;;;;146.68;15.88;;;;;;;4.41;67.21;100740.25;7765016;32;37495;-86
2022/11/26 05:57:43;;;;;;;76.25;12.05;;;;;;;3.65;69.48;100752.19;7764793;32;40028;-86
2022/11/26 06:01:59;;;;;;;83.10;13.45;;;;;;;3.85;68.95;100741.47;7750535;32;39864;-87
2022/11/26 06:06:16;;;;;;;131.65;14.30;;;;;;;4.11;68.53;100752.28;7750526;32;37744;-85
2022/11/26 06:10:32;;;;;;;220.25;16.98;;;;;;;4.25;68.48;100749.59;7764433;32;37450;-87
2022/11/26 06:14:48;;;;;;;316.95;20.20;;;;;;;4.01;69.37;100751.84;7764868;32;40015;-87
2022/11/26 06:19:05;;;;;;;415.00;23.80;;;;;;;4.02;69.20;100748.13;7764788;32;39502;-86
2022/11/26 06:23:21;;;;;;;229.35;20.67;;;;;;;3.62;70.52;100760.66;7764270;32;38758;-87
2022/11/26 06:27:37;;;;;;;226.43;16.80;;;;;;;3.79;69.81;100753.06;7750585;32;38058;-87
2022/11/26 06:31:54;;;;;;;88.78;12.70;;;;;;;4.09;68.86;100759.75;7764769;32;39002;-86
2022/11/26 06:36:10;;;;;;;20.33;10.85;;;;;;;4.38;68.35;100767.66;7763349;32;41019;-85
2022/11/26 06:40:26;;;;;;;46.97;10.88;;;;;;;4.25;68.04;100773.91;7764557;32;38025;-87
2022/11/26 06:44:43;;;;;;;25.20;11.10;;;;;;;4.36;67.99;100781.38;7764378;32;37969;-85
2022/11/26 06:49:03;;;;;;;35.92;11.18;;;;;;;4.57;67.48;100782.22;7764441;32;40045;-85
2022/11/26 06:53:19;;;;;;;23.20;11.30;;;;;;;4.32;68.24;100790.94;7764454;32;38374;-85
2022/11/26 06:57:35;;;;;;;18.25;10.45;;;;;;;4.40;67.61;100793.44;7763908;32;38606;-86
2022/11/26 07:01:51;;;;;;;27.55;10.45;;;;;;;4.57;67.49;100793.00;7764431;32;36899;-86
2022/11/26 07:06:19;;;;;;;31.73;11.30;;;;;;;4.73;66.78;100784.50;7763302;32;39358;-86
2022/11/26 07:10:36;;;;;;;45.85;11.20;;;;;;;4.77;66.54;100793.84;7764146;32;38406;-86
2022/11/26 07:14:53;;;;;;;23.65;9.60;;;;;;;4.38;67.11;100795.53;7763682;32;38804;-87
2022/11/26 07:19:11;;;;;;;31.77;11.75;;;;;;;4.73;66.51;100798.00;7763621;32;37104;-87
2022/11/26 07:23:28;;;;;;;26.05;11.07;;;;;;;4.73;65.63;100795.31;7749641;32;39917;-84
2022/11/26 07:27:44;;;;;;;28.73;11.05;;;;;;;4.56;66.48;100807.56;7763309;32;39929;-87
2022/11/26 07:32:00;;;;;;;35.65;11.43;;;;;;;4.35;66.42;100812.12;7763215;32;38700;-87
2022/11/26 07:36:21;;;;;;;25.95;10.85;;;;;;;4.13;68.34;100806.87;7762991;32;37323;-87
2022/11/26 07:40:38;;;;;;;25.27;12.07;;;;;;;5.08;65.91;100800.47;7763214;32;39904;-84
2022/11/26 07:44:54;;;;;;;25.35;12.25;;;;;;;5.12;65.96;100806.28;7762914;32;39960;-85
2022/11/26 07:49:11;;;;;;;57.72;13.00;;;;;;;4.98;66.65;100813.56;7762864;32;38852;-83
2022/11/26 07:53:31;;;;;;;86.05;13.60;;;;;;;5.01;66.91;100823.97;7762764;32;37424;-81
2022/11/26 07:57:48;;;;;;;24.42;11.93;;;;;;;4.22;68.54;100831.81;7762780;32;39037;-85
2022/11/26 08:02:04;;;;;;;42.78;12.85;;;;;;;4.57;68.74;100834.38;7762420;32;40791;-85
2022/11/26 08:06:23;;;;;;;26.70;11.05;;;;;;;4.68;66.49;100838.31;7763225;32;38679;-86
2022/11/26 08:10:39;;;;;;;22.75;12.43;;;;;;;4.39;67.55;100834.13;7739842;32;36722;-87
2022/11/26 08:14:55;;;;;;;22.17;12.85;;;;;;;4.76;67.08;100858.88;7766419;32;39988;-86
2022/11/26 08:19:13;;;;;;;42.03;15.20;;;;;;;5.04;66.92;100864.09;7766337;32;39740;-85
2022/11/26 08:23:29;;;;;;;60.75;15.80;;;;;;;5.15;66.34;100868.03;7766053;32;38735;-86
2022/11/26 08:27:46;;;;;;;45.15;15.60;;;;;;;4.40;68.96;100879.84;7752413;32;37007;-85
2022/11/26 08:32:02;;;;;;;34.47;16.67;;;;;;;4.41;69.29;100886.06;7766188;32;39899;-82
2022/11/26 08:36:19;;;;;;;61.80;20.55;;;;;;;4.99;68.11;100882.81;7765755;32;40891;-85
2022/11/26 08:40:36;;;;;;;46.22;19.65;;;;;;;4.44;70.29;100891.06;7765972;32;37939;-85
2022/11/26 08:44:53;;;;;;;37.35;18.90;;;;;;;5.02;68.86;100896.75;7751902;32;37286;-86
2022/11/26 08:49:12;;;;;;;43.17;20.62;;;;;;;5.24;68.69;100904.63;7765995;32;40085;-86
2022/11/26 08:53:29;;;;;;;42.08;21.55;;;;;;;5.03;70.05;100909.19;7765728;32;40837;-85
2022/11/26 08:57:46;;;;;;;44.50;22.70;;;;;;;5.19;69.83;100912.53;7765786;32;38747;-85
2022/11/26 09:02:02;;;;;;;53.55;24.95;;;;;;;5.35;69.49;100914.81;7765273;32;37180;-85
2022/11/26 09:06:20;;;;;;;48.55;24.20;;;;;;;4.99;70.64;100921.47;7765640;32;39378;-85
2022/11/26 09:10:37;;;;;;;44.83;22.33;;;;;;;5.00;70.41;100922.28;7765449;32;39947;-85
2022/11/26 09:14:53;;;;;;;43.53;22.37;;;;;;;5.40;69.52;100923.12;7765425;32;38086;-85
2022/11/26 09:19:11;;;;;;;42.10;22.20;;;;;;;4.94;70.94;100925.84;7764249;32;37227;-86
2022/11/26 09:23:27;;;;;;;42.08;21.25;;;;;;;5.57;69.00;100928.94;7751578;32;39249;-85
2022/11/26 09:27:43;;;;;;;40.25;21.15;;;;;;;5.69;68.38;100920.16;7765173;32;40601;-85
2022/11/26 09:32:01;;;;;;;38.55;19.70;;;;;;;5.38;69.63;100924.38;7765347;32;37936;-84
2022/11/26 09:36:37;;;;;;;41.53;20.70;;;;;;;5.85;68.90;100917.00;7764499;32;38490;-85
2022/11/26 09:41:00;;;;;;;38.40;19.45;;;;;;;5.81;69.37;100915.75;7765349;32;40043;-84
2022/11/26 09:45:39;;;;;;;39.67;20.23;;;;;;;5.70;69.88;100922.66;7751465;32;39844;-83
2022/11/26 09:50:13;;;;;;;36.45;19.67;;;;;;;5.79;69.07;100928.66;7765275;32;38767;-83
2022/11/26 09:54:30;;;;;;;37.08;18.73;;;;;;;6.15;68.13;100921.91;7765288;32;36980;-84
2022/11/26 09:58:56;;;;;;;46.45;24.23;;;;;;;6.00;68.05;100928.44;7765202;32;39290;-84
2022/11/26 10:03:17;;;;;;;38.13;20.88;;;;;;;5.61;69.42;100916.62;7752181;32;40032;-84
2022/11/26 10:08:16;;;;;;;38.58;20.08;;;;;;;5.77;69.15;100917.22;7764987;32;38617;-85
2022/11/26 10:12:53;;;;;;;37.30;20.42;;;;;;;6.19;68.33;100920.44;7754191;32;37284;-84
2022/11/26 10:17:40;;;;;;;41.50;23.00;;;;;;;5.79;68.64;100921.37;7764437;32;40354;-85
2022/11/26 10:21:59;;;;;;;45.83;22.95;;;;;;;6.37;67.36;100904.31;7750837;32;40590;-86
2022/11/26 10:26:29;;;;;;;50.42;26.87;;;;;;;5.71;69.03;100924.31;7764677;32;37920;-85
2022/11/26 10:30:49;;;;;;;58.08;29.27;;;;;;;5.66;69.64;100926.84;7751212;32;38235;-85
2022/11/26 10:35:05;;;;;;;61.88;31.95;;;;;;;6.34;67.74;100920.97;7764421;32;40255;-85
2022/11/26 10:39:21;;;;;;;71.85;34.85;;;;;;;6.64;66.68;100917.72;7764509;32;39803;-85
2022/11/26 10:43:38;;;;;;;57.10;31.23;;;;;;;6.41;68.23;100922.84;7764388;32;37777;-85
2022/11/26 10:48:13;;;;;;;48.05;25.23;;;;;;;6.21;68.64;100929.19;7764396;32;37105;-86
2022/11/26 10:52:31;;;;;;;43.80;23.38;;;;;;;6.51;67.58;100918.59;7752503;32;40004;-86
2022/11/26 10:56:52;;;;;;;43.72;22.52;;;;;;;5.90;69.61;100922.59;7750405;32;39284;-85
2022/11/26 11:01:08;;;;;;;40.65;22.87;;;;;;;6.76;68.28;100915.97;7764115;32;37830;-85
2022/11/26 11:05:26;;;;;;;39.38;21.60;;;;;;;6.79;68.05;100908.44;7750042;32;38060;-85
2022/11/26 11:09:42;;;;;;;41.15;20.98;;;;;;;7.15;67.05;100908.56;7750273;32;40169;-86
2022/11/26 11:13:59;;;;;;;39.72;20.58;;;;;;;7.27;66.57;100905.13;7763778;32;40016;-87
2022/11/26 11:18:19;;;;;;;42.55;21.70;;;;;;;6.90;66.66;100910.44;7763631;32;37780;-84
2022/11/26 11:22:35;;;;;;;41.70;20.83;;;;;;;7.39;65.54;100913.38;7763531;32;37205;-85
2022/11/26 11:26:54;;;;;;;38.55;20.12;;;;;;;7.76;65.10;100902.53;7763512;32;40476;-85
2022/11/26 11:31:15;;;;;;;40.35;21.58;;;;;;;8.11;64.38;100907.38;7762893;32;39128;-85
2022/11/26 11:35:31;;;;;;;41.15;22.13;;;;;;;7.88;64.76;100912.44;7749494;32;38583;-85
2022/11/26 11:40:05;;;;;;;41.83;23.35;;;;;;;7.63;65.74;100915.22;7763226;32;37815;-85
2022/11/26 11:44:37;;;;;;;41.95;23.20;;;;;;;7.56;65.97;100909.03;7766783;32;39178;-85
2022/11/26 11:49:10;;;;;;;45.35;22.73;;;;;;;7.76;65.77;100906.09;7766662;32;40937;-85
2022/11/26 11:53:30;;;;;;;42.47;22.45;;;;;;;7.48;66.65;100902.00;7754241;32;38868;-85
2022/11/26 11:58:05;;;;;;;40.78;22.00;;;;;;;7.58;66.62;100900.66;7766684;32;37043;-84
2022/11/26 12:02:49;;;;;;;43.65;22.02;;;;;;;7.02;68.47;100903.25;7766654;32;40083;-85
2022/11/26 12:07:37;;;;;;;46.55;23.45;;;;;;;7.26;67.91;100904.31;7766443;32;40776;-85
2022/11/26 12:12:00;;;;;;;41.30;22.95;;;;;;;7.45;66.99;100907.87;7766384;32;37945;-85
2022/11/26 12:16:18;;;;;;;39.30;21.52;;;;;;;7.11;68.09;100906.53;7753228;32;37061;-85
2022/11/26 12:20:43;;;;;;;44.15;23.10;;;;;;;7.56;66.73;100902.78;7766444;32;40093;-85
2022/11/26 12:25:05;;;;;;;47.20;25.48;;;;;;;7.41;66.95;100897.69;7753233;32;40130;-85
2022/11/26 12:29:33;;;;;;;38.38;21.95;;;;;;;7.31;66.91;100903.62;7752892;32;37599;-85
2022/11/26 12:33:54;;;;;;;45.72;22.37;;;;;;;6.77;68.60;100912.19;7765978;32;37028;-84
2022/11/26 12:38:47;;;;;;;43.60;22.98;;;;;;;7.45;67.00;100901.59;7765976;32;39351;-85
2022/11/26 12:43:28;;;;;;;40.38;22.73;;;;;;;7.33;67.56;100905.06;7766074;32;39911;-85
2022/11/26 12:47:58;;;;;;;38.63;23.10;;;;;;;7.23;68.22;100904.75;7753997;32;37915;-85
2022/11/26 12:52:31;;;;;;;43.15;21.40;;;;;;;7.47;67.93;100899.53;7753131;32;36967;-85
2022/11/26 12:56:58;;;;;;;43.67;23.70;;;;;;;7.52;67.69;100895.06;7752694;32;39833;-85
2022/11/26 13:01:14;;;;;;;44.50;23.50;;;;;;;7.61;67.90;100905.66;7765850;32;39900;-85
2022/11/26 13:05:46;;;;;;;40.80;23.08;;;;;;;7.62;68.27;100894.56;7765637;32;38767;-85
2022/11/26 13:10:26;;;;;;;40.22;21.30;;;;;;;8.02;67.34;100895.97;7765747;32;37233;-85
2022/11/26 13:15:32;;;;;;;45.20;25.12;;;;;;;7.68;67.70;100896.38;7753347;32;40164;-85
2022/11/26 13:20:10;;;;;;;40.85;23.67;;;;;;;7.40;68.46;100887.87;7732772;32;39931;-85
2022/11/26 13:24:26;;;;;;;38.53;23.60;;;;;;;7.36;68.62;100876.66;7765469;32;37974;-85
2022/11/26 13:29:02;;;;;;;40.78;22.00;;;;;;;8.43;67.76;100880.84;7765519;32;37943;-85
2022/11/26 13:33:46;;;;;;;43.90;25.37;;;;;;;8.04;66.55;100900.12;7765538;32;39273;-85
2022/11/26 13:38:13;;;;;;;39.38;22.37;;;;;;;7.80;66.85;100891.00;7737275;32;40774;-85
2022/11/26 13:43:01;;;;;;;41.80;23.10;;;;;;;8.07;66.48;100887.97;7737184;32;37714;-84
2022/11/26 13:47:22;;;;;;;39.05;21.23;;;;;;;8.31;66.43;100885.38;7738393;32;35794;-85
2022/11/26 13:51:56;;;;;;;39.83;22.20;;;;;;;8.54;65.70;100882.78;7737209;32;39344;-84
2022/11/26 13:56:14;;;;;;;37.33;19.83;;;;;;;8.88;64.10;100898.56;7738304;32;39997;-85
2022/11/26 14:00:33;;;;;;;34.15;20.88;;;;;;;9.05;63.12;100893.28;7738224;32;38276;-85
2022/11/26 14:04:50;;;;;;;34.25;19.30;;;;;;;8.70;63.40;100894.87;7736150;32;36239;-85
2022/11/26 14:09:26;;;;;;;39.78;21.35;;;;;;;8.23;65.40;100903.66;7738096;32;40062;-85
2022/11/26 14:13:42;;;;;;;40.05;20.98;;;;;;;8.31;64.81;100918.78;7737962;32;39965;-85
2022/11/26 14:17:58;;;;;;;37.95;21.50;;;;;;;7.95;65.73;100915.09;7737990;32;38260;-85
2022/11/26 14:22:21;;;;;;;34.80;20.58;;;;;;;8.22;65.18;100922.88;7737905;32;38018;-85
2022/11/26 14:26:37;;;;;;;42.97;21.75;;;;;;;7.71;66.13;100923.06;7737757;32;39358;-86
2022/11/26 14:30:54;;;;;;;39.83;21.17;;;;;;;7.29;68.54;100919.28;7737740;32;39690;-85
2022/11/26 14:35:32;;;;;;;39.42;22.05;;;;;;;7.12;69.20;100925.28;7740834;32;38671;-85
2022/11/26 14:40:17;;;;;;;37.80;21.33;;;;;;;7.01;70.05;100922.47;7756051;32;276375;-85
2022/11/26 14:44:33;;;;;;;37.88;20.98;;;;;;;6.48;71.62;100923.62;7764646;32;39022;-85
2022/11/26 14:48:50;;;;;;;40.50;21.60;;;;;;;7.31;68.96;100917.19;7764231;32;39707;-85
2022/11/26 14:53:11;;;;;;;42.58;22.00;;;;;;;6.90;70.10;100937.56;7764184;32;38095;-85
2022/11/26 14:57:43;;;;;;;42.72;21.95;;;;;;;6.87;70.35;100949.66;7750488;32;37937;-85
2022/11/26 15:01:59;;;;;;;41.83;21.92;;;;;;;7.38;69.09;100938.81;7764288;32;39376;-85
2022/11/26 15:06:37;;;;;;;39.28;20.55;;;;;;;7.50;68.49;100948.75;7749932;32;39890;-85
2022/11/26 15:11:01;;;;;;;41.78;22.58;;;;;;;7.58;68.72;100947.62;7763862;32;38744;-85
2022/11/26 15:15:22;;;;;;;36.20;21.62;;;;;;;7.75;67.77;100942.44;7764842;32;38015;-86
2022/11/26 15:19:39;;;;;;;42.85;22.23;;;;;;;7.91;67.28;100941.00;7767156;32;39055;-85
2022/11/26 15:23:58;;;;;;;45.58;23.75;;;;;;;7.78;67.48;100943.84;7753259;32;39893;-85
2022/11/26 15:28:21;;;;;;;41.78;22.58;;;;;;;7.75;67.91;100934.28;7753185;32;37804;-85
2022/11/26 15:32:38;;;;;;;42.08;23.87;;;;;;;7.76;67.63;100930.53;7766924;32;37006;-85
2022/11/26 15:36:54;;;;;;;45.65;24.35;;;;;;;7.10;70.43;100937.41;7766770;32;39525;-85
2022/11/26 15:41:18;;;;;;;44.38;23.62;;;;;;;7.56;69.03;100938.06;7766839;32;40846;-85
2022/11/26 15:45:39;;;;;;;42.83;22.83;;;;;;;7.81;68.22;100933.41;7766827;32;38707;-85
2022/11/26 15:49:58;;;;;;;46.47;24.37;;;;;;;7.80;68.11;100933.62;7766890;32;37213;-85
2022/11/26 15:54:29;;;;;;;41.78;23.10;;;;;;;7.52;69.40;100930.34;7766754;32;39344;-86
2022/11/26 15:59:14;;;;;;;42.60;23.33;;;;;;;7.88;68.05;100933.31;7766620;32;39953;-85
2022/11/26 16:03:40;;;;;;;42.85;22.65;;;;;;;8.08;66.98;100933.09;7753993;32;38033;-85
2022/11/26 16:08:02;;;;;;;40.50;23.52;;;;;;;8.19;66.70;100935.06;7766502;32;38057;-85
2022/11/26 16:12:32;;;;;;;46.22;23.55;;;;;;;7.96;67.30;100941.16;7766523;32;39344;-84
2022/11/26 16:16:51;;;;;;;49.42;23.27;;;;;;;8.14;67.04;100931.34;7766447;32;39998;-85
2022/11/26 16:21:20;;;;;;;44.00;23.48;;;;;;;8.22;66.29;100939.19;7766390;32;37724;-84
2022/11/26 16:25:36;;;;;;;47.47;23.17;;;;;;;8.17;66.76;100941.75;7766309;32;37259;-85
2022/11/26 16:29:53;;;;;;;36.35;21.73;;;;;;;7.77;67.99;100936.78;7765813;32;39362;-85
2022/11/26 16:34:09;;;;;;;38.30;23.12;;;;;;;8.41;66.11;100943.53;7766186;32;39980;-85
2022/11/26 16:38:26;;;;;;;46.05;24.70;;;;;;;7.88;68.00;100945.03;7765992;32;38682;-85
2022/11/26 16:42:42;;;;;;;39.80;22.87;;;;;;;7.67;68.73;100942.72;7766083;32;37224;-85
2022/11/26 16:47:00;;;;;;;36.97;21.98;;;;;;;8.25;66.69;100945.00;7765995;32;40055;-85
2022/11/26 16:51:16;;;;;;;42.65;22.02;;;;;;;8.38;65.90;100943.16;7752237;32;39870;-85
2022/11/26 16:55:32;;;;;;;38.25;21.35;;;;;;;8.00;66.62;100947.81;7765849;32;38109;-85
2022/11/26 17:00:00;;;;;;;41.03;21.70;;;;;;;8.12;66.48;100956.00;7765783;32;37212;-86
2022/11/26 17:04:17;;;;;;;38.88;21.83;;;;;;;8.30;65.89;100957.09;7752262;32;39319;-85
2022/11/26 17:08:34;;;;;;;45.70;21.65;;;;;;;8.30;65.79;100962.53;7765680;32;39740;-85
2022/11/26 17:12:50;;;;;;;42.92;22.52;;;;;;;8.43;65.50;100962.34;7765675;32;38655;-85
2022/11/26 17:17:20;;;;;;;42.10;23.35;;;;;;;8.48;65.30;100961.69;7765701;32;37204;-85
2022/11/26 17:21:40;;;;;;;36.08;20.83;;;;;;;8.49;65.13;100956.03;7753626;32;39285;-85
2022/11/26 17:25:57;;;;;;;37.22;22.85;;;;;;;8.27;65.78;100964.59;7765511;32;39866;-85
2022/11/26 17:30:19;;;;;;;42.25;22.37;;;;;;;8.31;65.81;100962.25;7765485;32;37881;-85
2022/11/26 17:34:35;;;;;;;40.97;23.70;;;;;;;8.57;65.07;100960.28;7765472;32;37120;-85
2022/11/26 17:38:52;;;;;;;41.00;22.83;;;;;;;8.83;63.84;100967.28;7764473;32;39073;-85
2022/11/26 17:43:09;;;;;;;43.13;24.87;;;;;;;8.55;64.66;100965.97;7765331;32;39906;-85
2022/11/26 17:47:26;;;;;;;42.20;23.62;;;;;;;8.57;64.73;100966.59;7765162;32;38178;-85
2022/11/26 17:51:42;;;;;;;42.47;23.60;;;;;;;8.43;65.31;100957.78;7764951;32;37308;-86
2022/11/26 17:55:59;;;;;;;43.45;25.05;;;;;;;8.26;66.05;100952.09;7763772;32;39985;-87
2022/11/26 18:00:19;;;;;;;37.22;23.33;;;;;;;8.35;65.56;100963.47;7750967;32;39938;-85
2022/11/26 18:04:35;;;;;;;49.35;24.67;;;;;;;8.39;65.47;100966.56;7764948;32;38786;-86
2022/11/26 18:08:52;;;;;;;39.40;21.73;;;;;;;8.43;65.39;100967.78;7764752;32;38399;-87
2022/11/26 18:13:08;;;;;;;37.15;21.77;;;;;;;8.44;65.08;100966.75;7764045;32;39923;-86
2022/11/26 18:17:24;;;;;;;37.80;21.17;;;;;;;8.55;64.58;100965.13;7764712;32;40743;-84
2022/11/26 18:21:41;;;;;;;39.10;23.38;;;;;;;8.36;65.43;100967.03;7764727;32;38094;-83
2022/11/26 18:25:57;;;;;;;34.60;20.42;;;;;;;8.46;65.05;100962.72;7764635;32;37186;-83
2022/11/26 18:30:14;;;;;;;35.97;20.98;;;;;;;8.55;64.37;100965.97;7764241;32;39082;-81
2022/11/26 18:34:30;;;;;;;35.83;19.73;;;;;;;8.33;65.39;100978.34;7761164;32;40420;-81
2022/11/26 18:38:46;;;;;;;34.08;19.12;;;;;;;8.30;65.40;100971.50;7761653;32;37989;-83
2022/11/26 18:43:04;;;;;;;36.85;20.25;;;;;;;8.60;64.50;100970.72;7761209;32;38522;-82
2022/11/26 18:47:22;;;;;;;41.53;20.42;;;;;;;8.48;65.10;100964.41;7746425;32;39901;-83
2022/11/26 18:51:38;;;;;;;36.10;20.98;;;;;;;8.65;64.49;100949.94;7763936;32;40549;-83
2022/11/26 18:55:55;;;;;;;37.60;21.08;;;;;;;8.52;64.86;100961.00;7750669;32;37906;-85
2022/11/26 19:00:13;;;;;;;33.80;20.20;;;;;;;8.77;64.43;100962.75;7762455;32;38031;-84
2022/11/26 19:04:29;;;;;;;35.08;22.08;;;;;;;8.71;64.73;100966.38;7750009;32;40103;-81
2022/11/26 19:08:46;;;;;;;48.78;27.02;;;;;;;8.71;64.86;100977.25;7763540;32;39899;-82
2022/11/26 19:13:02;;;;;;;39.67;23.40;;;;;;;8.93;64.53;100969.41;7763862;32;37846;-83
2022/11/26 19:17:19;;;;;;;35.78;19.48;;;;;;;8.75;65.14;100959.44;7763576;32;37347;-83
2022/11/26 19:21:35;;;;;;;31.12;19.12;;;;;;;8.76;65.71;100961.06;7762139;32;39391;-82
2022/11/26 19:25:52;;;;;;;34.15;20.85;;;;;;;8.82;65.44;100962.87;7762431;32;40817;-81
2022/11/26 19:30:08;;;;;;;38.60;21.45;;;;;;;8.81;65.28;100980.25;7754754;32;38649;-82
2022/11/26 19:34:25;;;;;;;41.15;22.30;;;;;;;8.80;64.86;100967.72;7763214;32;37287;-79
2022/11/26 19:38:42;;;;;;;43.50;23.12;;;;;;;8.78;64.60;100964.41;7763337;32;39289;-81
2022/11/26 19:42:58;;;;;;;39.67;22.45;;;;;;;8.51;65.57;100970.22;7763107;32;39940;-81
2022/11/26 19:47:14;;;;;;;35.30;21.92;;;;;;;8.75;64.63;100967.59;7762344;32;38034;-81
2022/11/26 19:51:31;;;;;;;35.53;21.45;;;;;;;8.43;65.80;100967.78;7762220;32;37870;-82
2022/11/26 19:56:09;;;;;;;44.35;23.15;;;;;;;8.58;65.15;100972.84;7762393;32;40119;-82
2022/11/26 20:00:25;;;;;;;33.35;20.75;;;;;;;8.52;65.20;100976.47;7758212;32;40812;-81